createdAt,value
2019-02-09T00:00:47.181Z,5.80
2019-02-09T00:03:17.454Z,7.77
2019-02-09T00:05:46.867Z,6.33
2019-02-09T00:08:16.099Z,4.73
2019-02-09T00:10:46.327Z,8.97
2019-02-09T00:13:15.557Z,10.00
2019-02-09T00:15:44.791Z,7.37
2019-02-09T00:18:14.083Z,10.13
2019-02-09T00:20:43.335Z,9.13
2019-02-09T00:23:12.567Z,5.63
2019-02-09T00:25:41.834Z,7.70
2019-02-09T00:28:11.123Z,10.07
2019-02-09T00:30:40.378Z,5.03
2019-02-09T00:33:09.607Z,5.37
2019-02-09T00:35:39.856Z,6.20
2019-02-09T00:38:09.074Z,9.13
2019-02-09T00:40:38.403Z,6.20
2019-02-09T00:43:07.640Z,8.60
2019-02-09T00:45:36.904Z,4.63
2019-02-09T00:48:06.114Z,7.13
2019-02-09T00:50:36.362Z,5.93
2019-02-09T00:53:05.663Z,3.97
2019-02-09T00:55:34.982Z,5.37
2019-02-09T00:58:04.379Z,4.00
2019-02-09T01:00:33.701Z,5.90
2019-02-09T01:03:02.926Z,3.77
2019-02-09T01:05:43.581Z,6.73
2019-02-09T01:08:12.950Z,8.53
2019-02-09T01:10:42.231Z,5.33
2019-02-09T01:13:11.521Z,8.40
2019-02-09T01:15:40.702Z,3.60
2019-02-09T01:18:09.951Z,6.27
2019-02-09T01:20:39.176Z,4.43
2019-02-09T01:23:08.428Z,7.00
2019-02-09T01:25:37.727Z,6.40
2019-02-09T01:28:07.956Z,6.90
2019-02-09T01:30:37.270Z,9.43
2019-02-09T01:33:06.540Z,7.00
2019-02-09T01:35:35.792Z,6.93
2019-02-09T01:38:05.107Z,5.63
2019-02-09T01:40:34.367Z,5.20
2019-02-09T01:43:03.625Z,4.60
2019-02-09T01:45:33.489Z,6.77
2019-02-09T01:48:02.783Z,5.07
2019-02-09T01:50:33.506Z,4.53
2019-02-09T01:53:02.745Z,5.97
2019-02-09T01:55:31.992Z,4.63
2019-02-09T01:58:01.241Z,5.07
2019-02-09T02:00:34.856Z,7.40
2019-02-09T02:03:04.711Z,5.30
2019-02-09T02:05:33.964Z,8.53
2019-02-09T02:08:03.191Z,3.53
2019-02-09T02:10:34.458Z,7.33
2019-02-09T02:13:06.320Z,7.87
2019-02-09T02:15:35.808Z,5.40
2019-02-09T02:18:05.580Z,5.27
2019-02-09T02:20:34.829Z,4.83
2019-02-09T02:23:05.507Z,4.70
2019-02-09T02:25:34.749Z,4.83
2019-02-09T02:28:04.120Z,4.07
2019-02-09T02:30:40.880Z,4.00
2019-02-09T02:33:10.098Z,2.97
2019-02-09T02:35:39.419Z,3.90
2019-02-09T02:38:09.751Z,2.87
2019-02-09T02:40:38.964Z,1.30
2019-02-09T02:43:08.212Z,2.97
2019-02-09T02:45:37.521Z,2.07
2019-02-09T02:48:07.744Z,6.13
2019-02-09T02:50:37.011Z,2.10
2019-02-09T02:53:06.244Z,1.57
2019-02-09T02:55:35.565Z,1.53
2019-02-09T02:58:05.954Z,1.30
2019-02-09T03:00:35.491Z,1.53
2019-02-09T03:03:05.707Z,2.37
2019-02-09T03:05:34.954Z,3.70
2019-02-09T03:08:05.892Z,3.43
2019-02-09T03:10:36.118Z,2.60
2019-02-09T03:13:05.567Z,4.37
2019-02-09T03:15:36.927Z,3.00
2019-02-09T03:18:06.220Z,4.53
2019-02-09T03:20:35.483Z,9.40
2019-02-09T03:23:05.065Z,7.83
2019-02-09T03:25:35.366Z,12.27
2019-02-09T03:28:05.220Z,7.60
2019-02-09T03:30:46.778Z,7.73
2019-02-09T03:33:05.466Z,8.83
2019-02-09T03:35:34.741Z,6.13
2019-02-09T03:38:03.966Z,7.33
2019-02-09T03:40:33.207Z,7.57
2019-02-09T03:43:02.432Z,6.53
2019-02-09T03:45:33.815Z,10.03
2019-02-09T03:48:03.487Z,13.37
2019-02-09T03:50:33.409Z,9.77
2019-02-09T03:53:02.658Z,9.37
2019-02-09T03:55:31.939Z,9.43
2019-02-09T03:58:01.261Z,10.03
2019-02-09T04:00:31.639Z,8.20
2019-02-09T04:03:01.926Z,14.77
2019-02-09T04:05:31.518Z,14.67
2019-02-09T04:08:00.724Z,10.67
2019-02-09T04:10:30.033Z,8.23
2019-02-09T04:12:59.313Z,9.00
2019-02-09T04:15:29.055Z,8.87
2019-02-09T04:17:58.297Z,9.00
2019-02-09T04:20:27.679Z,11.30
2019-02-09T04:22:57.027Z,10.90
2019-02-09T04:25:26.325Z,7.70
2019-02-09T04:27:55.578Z,9.13
2019-02-09T04:30:29.304Z,4.87
2019-02-09T04:32:58.793Z,7.40
2019-02-09T04:35:28.183Z,6.97
2019-02-09T04:37:58.410Z,10.17
2019-02-09T04:40:29.502Z,12.53
2019-02-09T04:42:58.955Z,10.97
2019-02-09T04:45:29.170Z,10.17
2019-02-09T04:47:59.469Z,5.33
2019-02-09T04:50:28.688Z,7.93
2019-02-09T04:52:58.952Z,4.33
2019-02-09T04:55:29.130Z,7.00
2019-02-09T04:57:58.380Z,10.20
2019-02-09T05:00:29.997Z,8.60
2019-02-09T05:02:59.662Z,6.33
2019-02-09T05:05:29.331Z,8.60
2019-02-09T05:07:58.601Z,9.50
2019-02-09T05:10:27.811Z,11.37
2019-02-09T05:12:57.026Z,9.80
2019-02-09T05:15:28.307Z,6.87
2019-02-09T05:17:58.519Z,8.20
2019-02-09T05:20:27.762Z,12.50
2019-02-09T05:22:57.024Z,13.93
2019-02-09T05:25:26.245Z,14.53
2019-02-09T05:27:55.519Z,9.80
2019-02-09T05:30:27.356Z,6.17
2019-02-09T05:32:56.730Z,6.87
2019-02-09T05:35:28.012Z,6.40
2019-02-09T05:37:57.244Z,6.67
2019-02-09T05:40:27.786Z,10.10
2019-02-09T05:42:57.006Z,7.83
2019-02-09T05:45:29.455Z,6.93
2019-02-09T05:47:58.629Z,10.90
2019-02-09T05:50:27.943Z,12.47
2019-02-09T05:52:57.193Z,12.67
2019-02-09T05:55:26.459Z,10.87
2019-02-09T05:57:55.744Z,10.50
2019-02-09T06:00:34.395Z,15.10
2019-02-09T06:03:04.799Z,14.27
2019-02-09T06:05:34.129Z,16.30
2019-02-09T06:08:03.355Z,14.13
2019-02-09T06:10:32.590Z,13.90
2019-02-09T06:13:01.828Z,12.00
2019-02-09T06:15:32.078Z,13.13
2019-02-09T06:18:01.376Z,12.80
2019-02-09T06:20:31.669Z,7.63
2019-02-09T06:23:00.894Z,8.50
2019-02-09T06:25:30.288Z,5.57
2019-02-09T06:27:59.661Z,8.03
2019-02-09T06:30:33.554Z,7.57
2019-02-09T06:33:02.772Z,10.53
2019-02-09T06:35:33.141Z,10.00
2019-02-09T06:38:02.413Z,8.47
2019-02-09T06:40:33.568Z,14.93
2019-02-09T06:43:03.956Z,18.97
2019-02-09T06:45:33.189Z,15.70
2019-02-09T06:48:25.704Z,13.17
2019-02-09T06:50:56.291Z,14.87
2019-02-09T06:53:25.520Z,11.87
2019-02-09T06:55:55.681Z,13.40
2019-02-09T06:58:25.943Z,11.23
2019-02-09T07:00:55.243Z,7.87
2019-02-09T07:03:25.464Z,5.33
2019-02-09T07:05:54.647Z,4.97
2019-02-09T07:08:24.831Z,5.33
2019-02-09T07:10:54.081Z,4.53
2019-02-09T07:13:23.313Z,3.80
2019-02-09T07:15:52.629Z,4.07
2019-02-09T07:18:22.808Z,6.50
2019-02-09T07:20:52.966Z,3.40
2019-02-09T07:23:23.203Z,7.17
2019-02-09T07:25:52.489Z,7.87
2019-02-09T07:28:21.741Z,7.93
2019-02-09T07:30:50.962Z,7.90
2019-02-09T07:33:21.131Z,9.57
2019-02-09T07:35:50.343Z,9.37
2019-02-09T07:38:19.572Z,17.53
2019-02-09T07:40:48.811Z,8.17
2019-02-09T07:43:18.059Z,6.63
2019-02-09T07:45:47.343Z,6.73
2019-02-09T07:48:16.581Z,8.63
2019-02-09T07:50:45.811Z,7.63
2019-02-09T07:53:15.064Z,9.83
2019-02-09T07:55:44.304Z,8.30
2019-02-09T07:58:13.545Z,10.83
2019-02-09T08:00:43.728Z,13.90
2019-02-09T08:03:12.958Z,13.73
2019-02-09T08:05:42.232Z,21.60
2019-02-09T08:08:13.363Z,21.70
2019-02-09T08:10:43.609Z,22.83
2019-02-09T08:13:13.011Z,18.50
2019-02-09T08:15:42.272Z,13.37
2019-02-09T08:18:11.568Z,16.83
2019-02-09T08:20:40.812Z,23.13
2019-02-09T08:23:11.178Z,17.40
2019-02-09T08:25:42.126Z,21.40
2019-02-09T08:28:15.021Z,16.60
2019-02-09T08:30:51.495Z,20.40
2019-02-09T08:33:20.733Z,21.93
2019-02-09T08:35:49.999Z,24.00
2019-02-09T08:38:19.252Z,18.43
2019-02-09T08:40:48.498Z,18.20
2019-02-09T08:43:17.804Z,17.70
2019-02-09T08:48:21.487Z,21.20
2019-02-09T08:51:10.186Z,20.87
2019-02-09T08:53:58.753Z,19.13
2019-02-09T08:56:47.456Z,21.20
2019-02-09T08:59:16.696Z,23.27
2019-02-09T09:02:05.301Z,17.40
2019-02-09T09:04:34.522Z,15.30
2019-02-09T09:10:31.172Z,19.30
2019-02-09T09:13:19.755Z,17.70
2019-02-09T09:16:09.012Z,15.50
2019-02-09T09:18:50.329Z,20.93
2019-02-09T09:21:19.599Z,15.80
2019-02-09T09:24:08.196Z,19.20
2019-02-09T09:26:56.810Z,17.90
2019-02-09T09:29:45.405Z,13.90
2019-02-09T09:32:14.673Z,15.60
2019-02-09T09:35:03.574Z,19.57
2019-02-09T09:37:32.833Z,17.20
2019-02-09T09:40:40.806Z,11.83
2019-02-09T09:43:29.416Z,16.03
2019-02-09T09:45:58.637Z,12.63
2019-02-09T09:48:27.906Z,11.90
2019-02-09T09:51:16.350Z,17.27
2019-02-09T09:53:45.585Z,21.17
2019-02-09T09:56:14.844Z,18.13
2019-02-09T09:58:44.127Z,18.37
2019-02-09T10:01:32.735Z,15.67
2019-02-09T10:04:02.006Z,17.60
2019-02-09T10:06:31.248Z,14.53
2019-02-09T10:09:19.860Z,13.60
2019-02-09T10:11:49.115Z,17.30
2019-02-09T10:14:37.727Z,23.77
2019-02-09T10:17:06.973Z,19.63
2019-02-09T10:19:48.646Z,16.07
2019-02-09T10:22:30.697Z,16.73
2019-02-09T10:25:11.883Z,16.53
2019-02-09T10:27:41.124Z,16.33
2019-02-09T10:30:30.752Z,14.80
2019-02-09T10:33:19.324Z,17.23
2019-02-09T10:36:08.271Z,14.10
2019-02-09T10:39:17.440Z,17.03
2019-02-09T10:41:46.663Z,14.30
2019-02-09T10:44:35.353Z,14.07
2019-02-09T10:47:23.979Z,10.10
2019-02-09T10:50:33.315Z,13.10
2019-02-09T10:53:21.883Z,11.47
2019-02-09T10:56:10.495Z,18.83
2019-02-09T10:58:39.728Z,11.70
2019-02-09T11:01:28.399Z,16.70
2019-02-09T11:04:17.044Z,14.90
2019-02-09T11:11:09.254Z,11.77
2019-02-09T11:13:57.849Z,12.10
2019-02-09T11:16:46.449Z,17.00
2019-02-09T11:19:28.399Z,15.27
2019-02-09T11:22:09.900Z,17.17
2019-02-09T11:24:53.157Z,15.47
2019-02-09T11:27:34.994Z,17.37
2019-02-09T11:30:16.708Z,16.43
2019-02-09T11:33:02.139Z,13.60
2019-02-09T11:35:41.209Z,15.40
2019-02-09T11:38:22.762Z,13.60
2019-02-09T11:40:52.017Z,11.37
2019-02-09T11:43:21.312Z,16.83
2019-02-09T11:45:50.651Z,14.93
2019-02-09T11:48:39.224Z,19.93
2019-02-09T11:51:27.836Z,13.00
2019-02-09T11:53:57.102Z,15.30
2019-02-09T11:56:45.746Z,14.60
2019-02-09T11:59:34.328Z,14.10
2019-02-09T12:02:22.979Z,12.17
2019-02-09T12:05:11.557Z,12.23
2019-02-09T12:07:40.805Z,14.80
2019-02-09T12:10:50.103Z,11.93
2019-02-09T12:13:19.379Z,14.07
2019-02-09T12:15:48.605Z,16.70
2019-02-09T12:18:29.673Z,15.80
2019-02-09T12:20:58.932Z,13.63
2019-02-09T12:23:28.198Z,13.37
2019-02-09T12:25:57.435Z,13.97
2019-02-09T12:28:46.097Z,16.43
2019-02-09T12:31:15.358Z,19.33
2019-02-09T12:33:44.622Z,12.93
2019-02-09T12:36:13.855Z,12.17
2019-02-09T12:39:02.442Z,15.50
2019-02-09T12:41:51.042Z,11.47
2019-02-09T12:44:39.649Z,14.63
2019-02-09T12:47:28.229Z,12.80
2019-02-09T12:49:57.490Z,10.90
2019-02-09T12:52:26.718Z,15.40
2019-02-09T12:54:55.981Z,11.53
2019-02-09T12:57:25.251Z,18.87
2019-02-09T12:59:54.488Z,11.17
2019-02-09T13:02:23.707Z,12.80
2019-02-09T13:04:52.965Z,12.70
2019-02-09T13:07:22.218Z,16.20
2019-02-09T13:09:51.462Z,18.07
2019-02-09T13:12:20.903Z,20.43
2019-02-09T13:15:50.903Z,16.27
2019-02-09T13:18:20.149Z,15.27
2019-02-09T13:20:49.396Z,16.60
2019-02-09T13:23:37.988Z,15.60
2019-02-09T13:26:26.540Z,15.63
2019-02-09T13:29:15.179Z,16.07
2019-02-09T13:32:03.826Z,14.43
2019-02-09T13:34:33.102Z,11.93
2019-02-09T13:37:02.356Z,10.97
2019-02-09T13:39:31.607Z,14.40
2019-02-09T13:42:20.252Z,12.40
2019-02-09T13:44:49.468Z,8.70
2019-02-09T13:47:38.082Z,11.60
2019-02-09T13:50:27.329Z,11.83
2019-02-09T13:52:56.674Z,14.67
2019-02-09T13:56:05.942Z,12.23
2019-02-09T13:58:54.547Z,12.57
2019-02-09T14:01:23.803Z,12.03
2019-02-09T14:04:12.434Z,13.87
2019-02-09T14:07:01.003Z,12.43
2019-02-09T14:09:49.600Z,10.57
2019-02-09T14:12:38.209Z,10.47
2019-02-09T14:15:27.775Z,6.83
2019-02-09T14:18:16.381Z,8.80
2019-02-09T14:20:45.606Z,10.07
2019-02-09T14:23:34.232Z,10.50
2019-02-09T14:26:03.445Z,10.70
2019-02-09T14:31:11.904Z,6.37
2019-02-09T14:34:00.561Z,5.20
2019-02-09T14:36:49.162Z,5.23
2019-02-09T14:39:18.395Z,7.13
2019-02-09T14:42:06.990Z,7.63
2019-02-09T14:44:55.565Z,10.87
2019-02-09T14:47:24.842Z,7.50
2019-02-09T14:50:14.197Z,8.27
2019-02-09T14:53:02.801Z,8.13
2019-02-09T14:56:12.078Z,7.33
2019-02-09T14:59:00.666Z,4.93
2019-02-09T15:01:29.934Z,7.47
2019-02-09T15:04:18.523Z,11.20
2019-02-09T15:07:07.136Z,9.07
2019-02-09T15:09:55.757Z,7.13
2019-02-09T15:12:25.016Z,6.67
2019-02-09T15:15:32.964Z,8.67
2019-02-09T15:18:42.256Z,10.37
2019-02-09T15:21:23.270Z,11.13
2019-02-09T15:23:52.534Z,8.37
2019-02-09T15:26:41.088Z,14.90
2019-02-09T15:29:29.739Z,15.93
2019-02-09T15:32:18.337Z,9.67
2019-02-09T15:34:47.595Z,12.93
2019-02-09T15:37:36.215Z,10.60
2019-02-09T15:40:24.790Z,12.00
2019-02-09T15:43:13.471Z,14.73
2019-02-09T15:46:02.082Z,11.47
2019-02-09T15:48:50.765Z,8.50
2019-02-09T15:51:39.343Z,11.73
2019-02-09T15:54:08.609Z,10.53
2019-02-09T15:56:57.167Z,7.67
2019-02-09T15:59:45.811Z,10.47
2019-02-09T16:02:36.094Z,11.57
2019-02-09T16:05:43.820Z,13.50
2019-02-09T16:08:32.423Z,10.77
2019-02-09T16:11:01.698Z,11.53
2019-02-09T16:13:30.937Z,8.83
2019-02-09T16:16:19.576Z,13.43
2019-02-09T16:18:48.813Z,15.03
2019-02-09T16:21:31.791Z,12.40
2019-02-09T16:24:01.067Z,9.90
2019-02-09T16:26:30.317Z,12.53
2019-02-09T16:29:19.016Z,11.77
2019-02-09T16:31:48.238Z,9.30
2019-02-09T16:34:17.514Z,13.03
2019-02-09T16:37:06.093Z,10.63
2019-02-09T16:39:54.707Z,7.90
2019-02-09T16:42:43.275Z,12.60
2019-02-09T16:45:43.713Z,13.37
2019-02-09T16:52:06.487Z,10.07
2019-02-09T16:54:55.103Z,9.13
2019-02-09T16:57:43.672Z,8.67
2019-02-09T17:00:53.004Z,10.57
2019-02-09T17:03:41.951Z,11.80
2019-02-09T17:06:30.896Z,7.23
2019-02-09T17:09:19.653Z,5.33
2019-02-09T17:12:08.611Z,8.13
2019-02-09T17:14:57.583Z,7.57
2019-02-09T17:17:46.444Z,8.43
2019-02-09T17:20:27.691Z,10.63
2019-02-09T17:23:08.977Z,9.00
2019-02-09T17:25:38.290Z,7.77
2019-02-09T17:28:47.668Z,6.87
2019-02-09T17:31:36.256Z,13.63
2019-02-09T17:34:05.553Z,11.80
2019-02-09T17:36:54.180Z,10.53
2019-02-09T17:39:42.762Z,9.80
2019-02-09T17:42:12.036Z,9.87
2019-02-09T17:44:41.251Z,12.23
2019-02-09T17:47:10.520Z,10.63
2019-02-09T17:49:59.118Z,8.63
2019-02-09T17:52:28.375Z,8.87
2019-02-09T17:55:18.612Z,10.27
2019-02-09T17:58:27.423Z,8.97
2019-02-09T18:01:15.859Z,12.43
2019-02-09T18:04:04.516Z,11.30
2019-02-09T18:06:33.772Z,6.97
2019-02-09T18:09:22.362Z,7.70
2019-02-09T18:11:51.613Z,10.60
2019-02-09T18:14:40.224Z,10.23
2019-02-09T18:17:09.478Z,14.43
2019-02-09T18:19:58.126Z,9.97
2019-02-09T18:22:46.782Z,11.67
2019-02-09T18:25:35.401Z,15.80
2019-02-09T18:28:23.986Z,14.00
2019-02-09T18:31:12.609Z,13.47
2019-02-09T18:33:41.853Z,13.40
2019-02-09T18:36:30.429Z,11.47
2019-02-09T18:38:59.695Z,17.93
2019-02-09T18:41:48.296Z,16.97
2019-02-09T18:44:36.905Z,17.83
2019-02-09T18:47:25.494Z,11.83
2019-02-09T18:49:54.760Z,31.23
2019-02-09T18:52:43.357Z,14.20
2019-02-09T18:55:52.731Z,16.87
2019-02-09T18:58:21.998Z,13.13
2019-02-09T19:03:46.499Z,14.23
2019-02-09T19:09:48.318Z,11.40
2019-02-09T19:12:17.603Z,9.70
2019-02-09T19:14:46.837Z,14.00
2019-02-09T19:17:35.425Z,12.60
2019-02-09T19:20:17.037Z,8.00
2019-02-09T19:22:58.692Z,13.77
2019-02-09T19:25:40.368Z,14.30
2019-02-09T19:28:22.093Z,11.73
2019-02-09T19:31:03.521Z,9.40
2019-02-09T19:33:45.177Z,8.30
2019-02-09T19:36:14.469Z,10.77
2019-02-09T19:38:43.775Z,9.77
2019-02-09T19:41:13.039Z,8.53
2019-02-09T19:44:01.635Z,14.80
2019-02-09T19:46:30.891Z,13.20
2019-02-09T19:49:19.479Z,15.60
2019-02-09T19:52:08.161Z,9.93
2019-02-09T19:54:56.744Z,13.20
2019-02-09T19:57:45.343Z,16.27
2019-02-09T20:00:34.989Z,16.40
2019-02-09T20:06:36.907Z,14.03
2019-02-09T20:09:46.190Z,13.90
2019-02-09T20:12:34.803Z,9.80
2019-02-09T20:15:45.739Z,12.03
2019-02-09T20:18:34.409Z,10.03
2019-02-09T20:21:15.797Z,15.23
2019-02-09T20:23:57.522Z,11.73
2019-02-09T20:26:26.767Z,10.60
2019-02-09T20:29:17.023Z,10.50
2019-02-09T20:31:46.269Z,10.80
2019-02-09T20:34:36.590Z,15.00
2019-02-09T20:40:55.235Z,15.70
2019-02-09T20:46:56.843Z,8.77
2019-02-09T20:49:45.435Z,11.87
2019-02-09T20:52:14.674Z,11.17
2019-02-09T20:55:03.274Z,10.70
2019-02-09T20:57:32.520Z,11.97
2019-02-09T21:00:40.472Z,11.23
2019-02-09T21:03:29.260Z,10.63
2019-02-09T21:05:58.517Z,12.63
2019-02-09T21:08:27.796Z,9.30
2019-02-09T21:14:29.704Z,11.10
2019-02-09T21:17:18.349Z,9.97
2019-02-09T21:19:47.750Z,14.90
2019-02-09T21:22:29.140Z,16.17
2019-02-09T21:24:58.387Z,7.87
2019-02-09T21:27:48.619Z,10.27
2019-02-09T21:30:57.964Z,7.83
2019-02-09T21:33:28.869Z,10.23
2019-02-09T21:36:17.542Z,9.93
2019-02-09T21:39:33.766Z,14.37
2019-02-09T21:42:36.347Z,12.33
2019-02-09T21:45:45.822Z,13.27
2019-02-09T21:48:15.051Z,14.63
2019-02-09T21:53:57.978Z,13.47
2019-02-09T21:56:46.588Z,14.70
2019-02-09T21:59:35.162Z,8.07
2019-02-09T22:02:44.453Z,10.17
2019-02-09T22:05:33.043Z,12.50
2019-02-09T22:08:21.650Z,15.90
2019-02-09T22:11:10.309Z,12.20
2019-02-09T22:13:58.966Z,15.03
2019-02-09T22:16:47.627Z,14.80
2019-02-09T22:19:36.349Z,12.57
2019-02-09T22:22:39.074Z,15.50
2019-02-09T22:25:20.711Z,13.43
2019-02-09T22:28:29.999Z,11.37
2019-02-09T22:30:59.272Z,11.23
2019-02-09T22:33:48.680Z,13.20
2019-02-09T22:36:57.332Z,14.70
2019-02-09T22:39:45.996Z,15.27
2019-02-09T22:42:15.191Z,14.00
2019-02-09T22:44:44.449Z,14.33
2019-02-09T22:47:33.023Z,15.50
2019-02-09T22:50:44.023Z,15.27
2019-02-09T22:53:32.594Z,17.40
2019-02-09T22:56:22.907Z,13.27
2019-02-09T22:59:11.491Z,15.00
2019-02-09T23:02:00.081Z,20.97
2019-02-09T23:05:09.441Z,14.03
2019-02-09T23:07:58.042Z,13.77
2019-02-09T23:10:46.634Z,11.60
2019-02-09T23:16:23.519Z,16.10
2019-02-09T23:18:52.771Z,15.43
2019-02-09T23:21:22.124Z,15.43
2019-02-09T23:24:10.715Z,12.80
2019-02-09T23:26:59.298Z,12.97
2019-02-09T23:29:47.863Z,21.17
2019-02-09T23:32:36.356Z,15.40
2019-02-09T23:35:24.963Z,10.80
2019-02-09T23:37:54.182Z,14.67
2019-02-09T23:40:42.895Z,18.70
2019-02-09T23:43:31.581Z,14.37
2019-02-09T23:46:00.847Z,15.70
2019-02-09T23:48:49.769Z,15.17
2019-02-09T23:51:38.387Z,13.20
2019-02-09T23:54:07.616Z,14.23
2019-02-09T23:56:56.211Z,18.03
2019-02-09T23:59:25.490Z,17.60
